Time;durP1;ratioP1;P1;durP2;ratioP2;P2;SDS_P1;SDS_P2;PMS_P1;PMS_P2;Temp;Humidity;BMP_temperature;BMP_pressure;BME280_temperature;BME280_humidity;BME280_pressure;Samples;Min_cycle;Max_cycle;Signal;HPM_P1;HPM_P2
2023/10/27 00:01:33;;;;;;;11.15;8.77;;;;;;;12.60;73.48;99129.19;5122413;28;20048;-61
2023/10/27 00:04:01;;;;;;;11.60;8.27;;;;;;;12.62;73.20;99123.53;5113199;28;20047;-60
2023/10/27 00:06:32;;;;;;;16.67;8.90;;;;;;;12.63;73.08;99134.03;5113215;28;20139;-59
2023/10/27 00:09:00;;;;;;;11.48;7.97;;;;;;;12.61;73.47;99124.63;5118558;28;20126;-60
2023/10/27 00:11:28;;;;;;;13.38;8.32;;;;;;;12.61;73.51;99133.50;5117717;28;20093;-61
2023/10/27 00:13:57;;;;;;;10.38;7.50;;;;;;;12.53;72.95;99120.59;5117208;28;20051;-60
2023/10/27 00:16:25;;;;;;;10.90;7.72;;;;;;;12.60;73.24;99128.38;5116634;28;20120;-60
2023/10/27 00:18:53;;;;;;;9.70;7.80;;;;;;;12.59;73.21;99119.50;5116505;28;20458;-59
2023/10/27 00:21:21;;;;;;;11.13;8.13;;;;;;;12.59;73.26;99121.38;5116561;28;20857;-59
2023/10/27 00:23:49;;;;;;;14.07;9.40;;;;;;;12.59;73.14;99118.69;5117728;28;20100;-60
2023/10/27 00:26:16;;;;;;;8.65;6.80;;;;;;;12.58;73.43;99123.28;5120460;28;20568;-60
2023/10/27 00:28:45;;;;;;;11.95;7.40;;;;;;;12.58;73.26;99120.59;5128825;27;20032;-60
2023/10/27 00:31:14;;;;;;;11.32;8.18;;;;;;;12.57;73.06;99129.75;5116861;28;20039;-60
2023/10/27 00:33:42;;;;;;;12.75;7.78;;;;;;;12.58;73.03;99117.88;5120923;28;20043;-60
2023/10/27 00:36:10;;;;;;;9.88;7.53;;;;;;;12.57;73.11;99121.66;5115956;28;20442;-60
2023/10/27 00:38:38;;;;;;;11.68;8.07;;;;;;;12.58;73.06;99111.69;5119203;28;20043;-60
2023/10/27 00:41:05;;;;;;;13.05;8.10;;;;;;;12.57;73.57;99105.50;5119715;28;20134;-61
2023/10/27 00:43:33;;;;;;;10.43;7.72;;;;;;;12.56;73.34;99101.19;5122846;28;20097;-59
2023/10/27 00:46:01;;;;;;;13.45;7.43;;;;;;;12.55;73.38;99101.47;5120180;28;20081;-61
2023/10/27 00:48:30;;;;;;;10.88;7.32;;;;;;;12.54;73.49;99099.84;5120430;28;20050;-60
2023/10/27 00:50:59;;;;;;;12.30;7.80;;;;;;;12.53;73.44;99099.06;5113862;28;20062;-59
2023/10/27 00:53:27;;;;;;;11.07;7.35;;;;;;;12.52;73.26;99100.13;5113678;28;20485;-60
2023/10/27 00:55:55;;;;;;;11.20;8.02;;;;;;;12.54;73.43;99106.06;5121034;28;20063;-60
2023/10/27 00:58:24;;;;;;;13.75;7.28;;;;;;;12.54;73.35;99099.84;5116024;28;20054;-60
2023/10/27 01:00:55;;;;;;;13.57;8.32;;;;;;;12.53;73.40;99095.56;5119497;28;20048;-60
2023/10/27 01:03:23;;;;;;;11.95;8.05;;;;;;;12.54;73.48;99099.84;5117589;28;20048;-60
2023/10/27 01:05:53;;;;;;;10.80;6.90;;;;;;;12.52;73.57;99102.84;5123950;28;20048;-60
2023/10/27 01:08:20;;;;;;;13.20;7.60;;;;;;;12.53;73.43;99100.94;5116554;28;20048;-60
2023/10/27 01:10:48;;;;;;;12.43;7.63;;;;;;;12.53;73.41;99096.34;5118176;28;20104;-60
2023/10/27 01:13:16;;;;;;;10.95;7.07;;;;;;;12.53;73.18;99100.94;5117196;28;20040;-59
2023/10/27 01:15:44;;;;;;;11.57;7.40;;;;;;;12.52;73.40;99099.31;5118199;28;20048;-60
2023/10/27 01:18:11;;;;;;;12.23;6.70;;;;;;;12.52;73.35;99094.75;5112139;28;20044;-61
2023/10/27 01:20:39;;;;;;;10.52;7.07;;;;;;;12.53;73.34;99096.34;5117455;28;20048;-60
2023/10/27 01:23:09;;;;;;;10.75;6.30;;;;;;;12.53;73.41;99095.56;5115127;28;20058;-60
2023/10/27 01:25:36;;;;;;;10.23;6.90;;;;;;;12.52;73.62;99093.94;5111754;28;20603;-60
2023/10/27 01:28:06;;;;;;;11.73;6.35;;;;;;;12.53;73.09;99087.47;5111948;28;20073;-59
2023/10/27 01:30:34;;;;;;;10.38;6.80;;;;;;;12.50;73.59;99088.03;5113328;28;20063;-60
2023/10/27 01:33:01;;;;;;;11.98;7.03;;;;;;;12.51;73.64;99093.13;5119909;28;20052;-60
2023/10/27 01:35:29;;;;;;;11.95;7.03;;;;;;;12.52;73.30;99088.56;5118715;28;20071;-60
2023/10/27 01:37:57;;;;;;;13.38;7.18;;;;;;;12.52;73.42;99086.66;5115255;28;20089;-61
2023/10/27 01:40:26;;;;;;;12.50;6.97;;;;;;;12.52;73.47;99091.25;5118074;28;20056;-60
2023/10/27 01:42:54;;;;;;;11.50;5.90;;;;;;;12.53;73.09;99088.28;5114906;28;20060;-60
2023/10/27 01:45:22;;;;;;;13.80;6.15;;;;;;;12.53;73.10;99084.78;5115106;28;20051;-60
2023/10/27 01:47:50;;;;;;;9.82;6.18;;;;;;;12.52;73.15;99089.34;5120583;28;20118;-60
2023/10/27 01:50:18;;;;;;;13.32;6.25;;;;;;;12.53;73.21;99090.16;5118649;28;20071;-62
2023/10/27 01:52:45;;;;;;;16.38;6.18;;;;;;;12.54;73.58;99084.50;5115196;28;20077;-60
2023/10/27 01:55:13;;;;;;;11.45;6.43;;;;;;;12.52;73.51;99081.28;5114763;28;20047;-60
2023/10/27 01:57:42;;;;;;;10.25;5.60;;;;;;;12.54;73.28;99078.28;5118058;28;20071;-60
2023/10/27 02:00:11;;;;;;;11.82;5.57;;;;;;;12.53;73.49;99082.06;5116775;28;20085;-60
2023/10/27 02:02:39;;;;;;;11.88;6.18;;;;;;;12.54;73.33;99086.38;5117703;28;20048;-60
2023/10/27 02:05:09;;;;;;;13.65;5.53;;;;;;;12.54;73.29;99081.00;5124250;28;20075;-61
2023/10/27 02:07:36;;;;;;;10.50;5.43;;;;;;;12.54;73.12;99081.81;5119039;28;20175;-60
2023/10/27 02:10:05;;;;;;;9.98;5.65;;;;;;;12.55;73.14;99077.22;5123729;28;20056;-60
2023/10/27 02:12:33;;;;;;;9.93;4.95;;;;;;;12.54;73.41;99073.72;5124039;28;20048;-60
2023/10/27 02:15:02;;;;;;;8.95;5.38;;;;;;;12.54;73.03;99070.22;5119995;28;20047;-61
2023/10/27 02:17:30;;;;;;;9.75;5.03;;;;;;;12.53;73.17;99071.31;5122268;28;20078;-61
2023/10/27 02:19:58;;;;;;;8.70;4.78;;;;;;;12.53;73.03;99069.41;5118946;28;20504;-60
2023/10/27 02:22:26;;;;;;;9.82;5.43;;;;;;;12.52;73.24;99070.50;5122579;28;20065;-61
2023/10/27 02:24:54;;;;;;;9.55;4.75;;;;;;;12.52;73.45;99070.50;5122791;28;20059;-61
2023/10/27 02:27:22;;;;;;;7.93;4.60;;;;;;;12.52;73.48;99065.09;5123483;28;20050;-61
2023/10/27 02:29:49;;;;;;;15.32;4.70;;;;;;;12.53;73.37;99063.22;5119488;28;20108;-61
2023/10/27 02:32:19;;;;;;;11.65;5.75;;;;;;;12.51;73.16;99060.00;5121119;28;20047;-61
2023/10/27 02:34:46;;;;;;;10.10;4.97;;;;;;;12.52;73.44;99056.22;5123107;28;20039;-61
2023/10/27 02:37:14;;;;;;;9.50;4.55;;;;;;;12.51;73.56;99052.72;5123282;28;20051;-60
2023/10/27 02:39:42;;;;;;;8.73;4.60;;;;;;;12.50;73.68;99051.09;5124943;28;20092;-61
2023/10/27 02:42:10;;;;;;;14.60;5.72;;;;;;;12.51;73.66;99051.91;5122828;28;20047;-60
2023/10/27 02:44:38;;;;;;;10.48;4.65;;;;;;;12.50;73.53;99048.41;5122166;28;20051;-60
2023/10/27 02:47:06;;;;;;;12.32;4.68;;;;;;;12.50;73.37;99045.72;5116561;28;20105;-60
2023/10/27 02:49:35;;;;;;;10.57;4.38;;;;;;;12.49;73.32;99043.31;5115518;28;20604;-59
2023/10/27 02:52:03;;;;;;;7.95;4.28;;;;;;;12.49;73.64;99046.00;5118848;28;20138;-60
2023/10/27 02:54:31;;;;;;;8.18;4.22;;;;;;;12.49;73.13;99046.00;5123778;28;20089;-60
2023/10/27 02:56:59;;;;;;;9.10;4.53;;;;;;;12.48;73.40;99042.50;5120936;28;20055;-60
2023/10/27 02:59:26;;;;;;;11.43;4.68;;;;;;;12.48;73.40;99036.31;5123635;28;20085;-60
2023/10/27 03:01:54;;;;;;;12.07;5.13;;;;;;;12.49;73.28;99046.00;5121550;28;20097;-60
2023/10/27 03:04:22;;;;;;;8.13;4.40;;;;;;;12.47;73.71;99037.38;5123239;28;20069;-59
2023/10/27 03:06:51;;;;;;;14.80;4.88;;;;;;;12.47;73.68;99032.78;5113203;28;20047;-60
2023/10/27 03:09:19;;;;;;;10.88;4.13;;;;;;;12.47;73.40;99032.00;5121660;28;20069;-60
2023/10/27 03:11:47;;;;;;;10.07;4.03;;;;;;;12.47;73.41;99037.38;5116960;28;20060;-59
2023/10/27 03:14:15;;;;;;;9.48;3.75;;;;;;;12.46;73.15;99033.88;5117973;28;20063;-60
2023/10/27 03:16:43;;;;;;;8.43;4.38;;;;;;;12.47;73.64;99026.59;5121938;28;20078;-60
2023/10/27 03:19:11;;;;;;;7.72;3.90;;;;;;;12.46;73.21;99033.88;5120475;28;20073;-60
2023/10/27 03:21:39;;;;;;;9.43;3.85;;;;;;;12.46;73.41;99028.50;5121454;28;20116;-60
2023/10/27 03:24:08;;;;;;;6.50;3.03;;;;;;;12.42;73.53;99026.63;5120268;28;20051;-60
2023/10/27 03:26:36;;;;;;;9.90;4.38;;;;;;;12.46;73.51;99025.00;5122393;28;20048;-59
2023/10/27 03:29:04;;;;;;;9.88;3.88;;;;;;;12.46;73.37;99030.38;5117806;28;20044;-59
2023/10/27 03:31:32;;;;;;;11.00;3.60;;;;;;;12.45;73.69;99028.78;5122981;28;20065;-59
2023/10/27 03:34:00;;;;;;;9.80;3.72;;;;;;;12.46;73.23;99017.72;5116569;28;20078;-59
2023/10/27 03:36:28;;;;;;;7.88;3.80;;;;;;;12.46;73.49;99027.69;5117363;28;20120;-60
2023/10/27 03:38:56;;;;;;;7.13;3.42;;;;;;;12.45;73.28;99026.88;5114465;28;20214;-60
2023/10/27 03:41:25;;;;;;;7.30;3.20;;;;;;;12.45;73.70;99029.56;5120922;28;20040;-59
2023/10/27 03:43:53;;;;;;;13.20;2.95;;;;;;;12.45;73.48;99018.81;5117958;28;20048;-60
2023/10/27 03:46:21;;;;;;;6.13;3.15;;;;;;;12.44;73.53;99025.28;5115283;28;20051;-60
2023/10/27 03:48:49;;;;;;;12.05;3.30;;;;;;;12.43;73.58;99020.16;5118763;28;20294;-60
2023/10/27 03:51:16;;;;;;;8.48;3.20;;;;;;;12.43;73.29;99017.47;5115688;28;20051;-60
2023/10/27 03:53:44;;;;;;;10.85;4.18;;;;;;;12.43;73.35;99017.47;5121041;28;20048;-60
2023/10/27 03:56:13;;;;;;;8.43;3.47;;;;;;;12.43;73.54;99015.56;5122523;28;20092;-61
2023/10/27 03:58:42;;;;;;;8.90;3.03;;;;;;;12.43;73.71;99020.97;5116139;28;20048;-60
2023/10/27 04:01:15;;;;;;;7.20;3.50;;;;;;;12.43;73.27;99012.06;5115448;28;20044;-60
2023/10/27 04:03:43;;;;;;;10.13;3.58;;;;;;;12.43;73.22;99017.47;5119265;28;20077;-60
2023/10/27 04:06:11;;;;;;;8.07;3.00;;;;;;;12.43;73.24;99015.56;5119639;28;20055;-60
2023/10/27 04:08:39;;;;;;;8.57;3.50;;;;;;;12.44;73.20;99021.78;5120316;28;20043;-60
2023/10/27 04:11:06;;;;;;;9.63;3.40;;;;;;;12.44;73.17;99014.50;5112662;28;20358;-60
2023/10/27 04:13:35;;;;;;;7.43;3.40;;;;;;;12.44;73.44;99014.50;5113901;28;20103;-60
2023/10/27 04:16:04;;;;;;;9.10;2.70;;;;;;;12.45;73.72;99018.00;5112608;28;20077;-60
2023/10/27 04:18:32;;;;;;;8.45;2.90;;;;;;;12.44;73.22;99014.50;5113441;28;20044;-60
2023/10/27 04:21:03;;;;;;;11.55;3.08;;;;;;;12.45;73.48;99013.41;5115781;28;20357;-59
2023/10/27 04:23:31;;;;;;;8.10;3.35;;;;;;;12.45;73.72;99015.31;5121402;28;20080;-59
2023/10/27 04:25:59;;;;;;;7.50;3.22;;;;;;;12.44;73.53;99011.81;5113990;28;20106;-60
2023/10/27 04:28:27;;;;;;;9.95;3.00;;;;;;;12.45;73.31;99009.91;5120448;28;20043;-59
2023/10/27 04:30:55;;;;;;;9.82;3.05;;;;;;;12.43;73.61;99006.69;5119737;28;20053;-60
2023/10/27 04:33:24;;;;;;;7.68;3.95;;;;;;;12.44;73.65;99014.50;5114611;28;20048;-59
2023/10/27 04:35:53;;;;;;;9.82;3.40;;;;;;;12.44;73.30;99011.00;5116523;28;20046;-60
2023/10/27 04:38:20;;;;;;;6.15;2.80;;;;;;;12.43;73.79;99006.69;5117422;28;20047;-60
2023/10/27 04:40:48;;;;;;;5.05;2.45;;;;;;;12.43;73.66;99004.00;5118229;28;20047;-60
2023/10/27 04:43:16;;;;;;;10.13;3.20;;;;;;;12.43;73.65;99012.88;5115300;28;20052;-60
2023/10/27 04:45:45;;;;;;;7.53;3.70;;;;;;;12.43;73.28;99015.56;5116876;28;20059;-59
2023/10/27 04:48:13;;;;;;;9.50;3.25;;;;;;;12.45;73.80;99015.31;5116888;28;20097;-59
2023/10/27 04:50:42;;;;;;;10.93;2.70;;;;;;;12.44;73.13;99008.31;5110617;28;20044;-60
2023/10/27 04:53:11;;;;;;;9.05;3.38;;;;;;;12.44;73.70;99005.59;5115258;28;20501;-60
2023/10/27 04:55:39;;;;;;;8.50;3.72;;;;;;;12.43;73.79;99009.38;5116027;28;20044;-59
2023/10/27 04:58:07;;;;;;;6.47;2.75;;;;;;;12.42;73.79;99005.88;5117432;28;20084;-60
2023/10/27 05:00:34;;;;;;;10.45;3.28;;;;;;;12.42;73.86;99002.38;5113116;28;20044;-60
2023/10/27 05:03:02;;;;;;;7.95;3.13;;;;;;;12.42;73.83;99000.50;5117919;28;20040;-60
2023/10/27 05:05:30;;;;;;;7.18;3.30;;;;;;;12.41;73.33;98996.19;5114008;28;20051;-61
2023/10/27 05:07:59;;;;;;;9.13;3.00;;;;;;;12.41;73.53;98995.38;5117620;28;20050;-62
2023/10/27 05:10:27;;;;;;;9.00;3.72;;;;;;;12.41;73.56;98992.69;5119025;28;20112;-61
2023/10/27 05:12:55;;;;;;;9.82;3.13;;;;;;;12.37;73.65;98992.44;5116226;28;20304;-61
2023/10/27 05:15:23;;;;;;;8.90;3.05;;;;;;;12.40;73.75;98991.88;5115294;28;20056;-62
2023/10/27 05:17:51;;;;;;;7.82;3.03;;;;;;;12.39;73.79;98992.97;5118772;28;20047;-63
2023/10/27 05:20:19;;;;;;;8.30;3.47;;;;;;;12.38;73.71;98992.16;5117573;28;20044;-61
2023/10/27 05:22:47;;;;;;;11.05;3.20;;;;;;;12.38;73.52;98988.66;5115840;28;20044;-61
2023/10/27 05:25:16;;;;;;;7.88;3.10;;;;;;;12.39;73.51;98990.28;5114421;28;20040;-61
2023/10/27 05:27:44;;;;;;;11.57;4.35;;;;;;;12.37;73.74;98992.44;5118115;28;20063;-61
2023/10/27 05:30:12;;;;;;;8.10;3.35;;;;;;;12.38;73.58;98994.88;5118547;28;20143;-65
2023/10/27 05:32:40;;;;;;;7.50;3.08;;;;;;;12.37;73.52;98989.75;5121757;28;20052;-61
2023/10/27 05:35:08;;;;;;;10.63;3.30;;;;;;;12.37;73.61;98987.06;5119715;28;20051;-61
2023/10/27 05:37:36;;;;;;;7.57;3.10;;;;;;;12.36;73.64;98994.34;5120900;28;20047;-62
2023/10/27 05:40:05;;;;;;;10.23;3.55;;;;;;;12.37;73.87;98993.25;5122559;28;20130;-60
2023/10/27 05:42:34;;;;;;;7.28;2.90;;;;;;;12.37;73.83;98987.88;4758451;28;9999851;-61
2023/10/27 05:45:03;;;;;;;5.85;2.63;;;;;;;12.38;73.36;98994.06;5111712;28;20158;-61
2023/10/27 05:47:30;;;;;;;5.85;2.92;;;;;;;12.34;73.87;98993.00;5115894;28;20069;-63
2023/10/27 05:49:58;;;;;;;9.02;3.05;;;;;;;12.33;74.11;98989.50;5111673;28;20599;-60
2023/10/27 05:52:26;;;;;;;8.65;3.80;;;;;;;12.36;73.72;98996.22;5110222;28;20039;-60
2023/10/27 05:54:54;;;;;;;7.30;3.50;;;;;;;12.36;73.65;98990.84;5115205;28;20110;-59
2023/10/27 05:57:22;;;;;;;8.52;3.20;;;;;;;12.37;73.97;98997.84;5118071;28;20076;-61
2023/10/27 05:59:51;;;;;;;7.78;2.88;;;;;;;12.36;73.82;98991.66;5122396;28;20076;-62
2023/10/27 06:02:20;;;;;;;11.23;3.45;;;;;;;12.37;74.11;98997.84;5113334;28;20485;-62
2023/10/27 06:04:48;;;;;;;6.38;3.85;;;;;;;12.34;74.49;98999.19;5120879;28;20421;-63
2023/10/27 06:07:17;;;;;;;5.28;3.33;;;;;;;12.30;75.41;98994.66;5116150;28;20052;-61
2023/10/27 06:09:46;;;;;;;21.35;4.07;;;;;;;12.30;74.82;98994.66;5113904;28;20044;-65
2023/10/27 06:12:15;;;;;;;6.10;3.70;;;;;;;12.30;75.13;98995.44;5113466;28;20054;-63
2023/10/27 06:14:45;;;;;;;7.85;3.33;;;;;;;12.33;74.58;99004.88;5116129;28;20044;-63
2023/10/27 06:17:14;;;;;;;6.72;3.38;;;;;;;12.33;74.36;99000.28;5123053;28;20059;-64
2023/10/27 06:19:42;;;;;;;7.75;3.72;;;;;;;12.34;74.71;99009.97;5126042;28;20047;-64
2023/10/27 06:22:10;;;;;;;5.95;3.00;;;;;;;12.35;74.55;99005.38;5121668;28;20060;-64
2023/10/27 06:24:38;;;;;;;11.15;3.50;;;;;;;12.36;74.15;99012.38;5123641;28;20048;-63
2023/10/27 06:27:05;;;;;;;6.47;2.92;;;;;;;12.36;74.54;98998.91;5123253;28;20108;-63
2023/10/27 06:29:34;;;;;;;4.78;3.22;;;;;;;12.36;74.45;99007.81;5123935;28;20047;-63
2023/10/27 06:32:03;;;;;;;8.07;2.78;;;;;;;12.36;74.26;99007.81;5122177;28;20039;-64
2023/10/27 06:34:32;;;;;;;6.15;2.47;;;;;;;12.36;74.11;99009.69;5125543;28;20039;-63
2023/10/27 06:37:01;;;;;;;5.45;2.72;;;;;;;12.36;74.14;99012.38;5123727;28;20044;-64
2023/10/27 06:39:29;;;;;;;4.55;2.40;;;;;;;12.36;74.43;99010.50;5121229;28;20051;-64
2023/10/27 06:41:56;;;;;;;5.43;3.40;;;;;;;12.36;73.94;99007.81;5123987;28;20040;-63
2023/10/27 06:44:24;;;;;;;4.53;2.97;;;;;;;12.37;74.34;99006.72;5119844;28;20139;-64
2023/10/27 06:46:53;;;;;;;5.28;2.53;;;;;;;12.37;74.19;99011.31;5123251;28;20437;-64
2023/10/27 06:49:21;;;;;;;6.85;2.90;;;;;;;12.36;74.13;99007.00;5121032;28;20047;-64
2023/10/27 06:51:50;;;;;;;5.18;2.30;;;;;;;12.33;74.26;99002.16;5123655;28;20051;-64
2023/10/27 06:54:18;;;;;;;4.95;2.70;;;;;;;12.36;74.18;99010.50;5121480;28;20044;-64
2023/10/27 06:56:46;;;;;;;6.50;2.95;;;;;;;12.38;73.92;99023.69;5123792;28;20044;-64
2023/10/27 06:59:13;;;;;;;4.72;2.60;;;;;;;12.36;74.21;99018.59;5123285;28;20065;-65
2023/10/27 07:01:44;;;;;;;6.82;2.45;;;;;;;12.35;74.20;99025.06;5124334;28;20085;-64
2023/10/27 07:04:14;;;;;;;3.40;2.15;;;;;;;12.23;74.00;99008.41;5118220;28;20043;-64
2023/10/27 07:06:42;;;;;;;7.30;2.55;;;;;;;12.35;73.99;99021.56;5123358;28;20055;-63
2023/10/27 07:09:11;;;;;;;3.20;2.28;;;;;;;12.34;74.38;99023.44;5123703;28;20051;-64
2023/10/27 07:11:39;;;;;;;5.90;2.60;;;;;;;12.36;74.34;99028.56;5119363;28;20043;-64
2023/10/27 07:14:07;;;;;;;5.45;2.30;;;;;;;12.35;74.13;99035.81;5123690;28;20044;-64
2023/10/27 07:16:35;;;;;;;6.55;2.50;;;;;;;12.36;74.21;99036.63;5122876;28;20066;-64
2023/10/27 07:19:03;;;;;;;4.95;2.38;;;;;;;12.35;74.22;99038.53;5118334;28;20048;-65
2023/10/27 07:21:33;;;;;;;5.15;2.40;;;;;;;12.35;74.26;99051.19;5122692;28;20078;-64
2023/10/27 07:24:01;;;;;;;6.35;2.70;;;;;;;12.35;74.35;99043.91;5122301;28;20036;-64
2023/10/27 07:26:30;;;;;;;4.57;2.50;;;;;;;12.34;73.96;99050.38;5124199;28;20100;-64
2023/10/27 07:28:58;;;;;;;5.70;3.03;;;;;;;12.33;74.24;99054.16;5122417;28;20039;-64
2023/10/27 07:31:26;;;;;;;7.80;2.70;;;;;;;12.30;74.82;99048.50;5114172;28;20113;-62
2023/10/27 07:33:55;;;;;;;8.45;3.03;;;;;;;12.31;74.80;99050.13;5114677;28;20044;-64
2023/10/27 07:36:23;;;;;;;4.72;2.70;;;;;;;12.31;74.67;99050.94;5121260;28;20089;-64
2023/10/27 07:38:51;;;;;;;6.05;2.72;;;;;;;12.32;75.14;99057.13;5118462;28;20047;-62
2023/10/27 07:41:19;;;;;;;6.30;2.55;;;;;;;12.31;75.14;99061.72;5116051;28;20048;-63
2023/10/27 07:43:48;;;;;;;3.33;2.28;;;;;;;12.32;74.60;99059.81;5119537;28;20074;-64
2023/10/27 07:46:16;;;;;;;6.30;2.60;;;;;;;12.31;74.73;99055.50;5121992;27;20051;-63
2023/10/27 07:48:44;;;;;;;4.97;2.50;;;;;;;12.39;74.63;99058.44;5119273;27;20455;-63
2023/10/27 07:51:12;;;;;;;5.47;2.63;;;;;;;12.50;74.36;99061.06;5112332;28;20044;-63
2023/10/27 07:53:40;;;;;;;7.43;2.30;;;;;;;12.70;74.02;99066.34;5119548;28;20120;-63
2023/10/27 07:56:11;;;;;;;5.70;2.45;;;;;;;12.91;73.02;99067.81;5116014;28;20047;-63
2023/10/27 07:58:39;;;;;;;5.20;2.78;;;;;;;13.06;72.58;99064.22;5117596;28;20048;-63
2023/10/27 08:01:09;;;;;;;4.65;2.50;;;;;;;13.25;71.98;99062.47;5121066;28;20289;-65
2023/10/27 08:03:38;;;;;;;4.85;2.60;;;;;;;13.41;70.97;99073.94;5122107;28;20138;-64
2023/10/27 08:06:07;;;;;;;3.78;2.10;;;;;;;13.58;70.59;99076.22;5122072;28;20103;-64
2023/10/27 08:08:37;;;;;;;3.38;2.28;;;;;;;13.74;69.75;99077.66;5121713;28;20054;-64
2023/10/27 08:11:05;;;;;;;5.63;2.13;;;;;;;13.90;69.37;99080.97;5119042;28;20051;-64
2023/10/27 08:13:33;;;;;;;4.32;2.60;;;;;;;14.04;68.65;99081.91;5121986;28;20070;-64
2023/10/27 08:16:04;;;;;;;3.95;2.25;;;;;;;14.06;68.49;99092.41;5123516;28;20047;-64
2023/10/27 08:18:33;;;;;;;3.55;2.30;;;;;;;13.97;68.98;99093.06;5122254;28;20043;-64
2023/10/27 08:21:01;;;;;;;4.55;2.42;;;;;;;13.82;69.23;99093.25;5119518;28;20047;-64
2023/10/27 08:23:29;;;;;;;4.70;2.60;;;;;;;13.66;70.10;99094.47;5119664;28;20089;-64
2023/10/27 08:25:57;;;;;;;5.22;2.70;;;;;;;13.51;70.58;99097.31;5121771;28;20114;-63
2023/10/27 08:28:24;;;;;;;4.03;2.40;;;;;;;13.39;70.90;99102.28;5118813;28;20093;-63
2023/10/27 08:30:53;;;;;;;5.32;2.35;;;;;;;13.30;71.22;99107.47;5120165;28;20062;-64
2023/10/27 08:33:21;;;;;;;4.40;2.75;;;;;;;13.20;71.93;99099.47;5116463;28;20040;-64
2023/10/27 08:35:50;;;;;;;3.25;2.30;;;;;;;13.13;72.14;99098.94;5122621;28;20047;-64
2023/10/27 08:38:18;;;;;;;4.60;2.42;;;;;;;13.09;72.44;99093.31;5121337;28;20047;-64
2023/10/27 08:40:46;;;;;;;4.75;2.40;;;;;;;13.05;72.51;99103.06;5119997;28;20065;-64
2023/10/27 08:43:15;;;;;;;4.72;2.35;;;;;;;13.02;72.48;99104.41;5120874;28;20039;-64
2023/10/27 08:45:43;;;;;;;3.78;2.28;;;;;;;12.98;72.48;99097.16;5122143;28;20071;-64
2023/10/27 08:48:12;;;;;;;5.03;2.80;;;;;;;12.93;73.13;99102.59;5121323;28;20051;-64
2023/10/27 08:50:41;;;;;;;3.75;2.85;;;;;;;12.88;73.37;99103.44;5117475;28;20127;-64
2023/10/27 08:53:12;;;;;;;3.42;2.33;;;;;;;12.85;73.37;99111.28;5119460;28;20104;-64
2023/10/27 08:55:40;;;;;;;4.70;2.47;;;;;;;12.83;73.55;99105.34;5121763;28;20047;-63
2023/10/27 08:58:08;;;;;;;6.68;3.67;;;;;;;12.80;73.55;99114.81;5121363;28;20056;-64
2023/10/27 09:00:36;;;;;;;3.75;2.25;;;;;;;12.79;73.60;99115.91;5118768;28;20108;-64
2023/10/27 09:03:15;;;;;;;6.95;2.80;;;;;;;12.78;73.87;99125.06;5122590;28;20043;-63
2023/10/27 09:05:43;;;;;;;4.28;2.22;;;;;;;12.75;73.41;99120.22;5121861;28;20046;-63
2023/10/27 09:08:12;;;;;;;4.32;2.60;;;;;;;12.75;73.79;99122.94;5121147;28;20043;-63
2023/10/27 09:10:40;;;;;;;4.75;2.47;;;;;;;12.74;73.58;99113.22;5120954;28;20047;-63
2023/10/27 09:13:09;;;;;;;8.82;3.63;;;;;;;12.74;73.57;99113.22;5124454;28;20046;-63
2023/10/27 09:15:45;;;;;;;5.93;3.35;;;;;;;12.72;73.82;99107.31;5120027;28;20051;-64
2023/10/27 09:18:13;;;;;;;4.85;3.00;;;;;;;12.70;73.95;99110.28;5123034;28;20082;-64
2023/10/27 09:20:49;;;;;;;6.45;3.67;;;;;;;12.70;74.28;99117.56;5122346;28;20043;-65
2023/10/27 09:23:19;;;;;;;5.93;3.80;;;;;;;12.68;74.44;99114.34;5118798;28;20121;-64
2023/10/27 09:25:47;;;;;;;4.72;3.30;;;;;;;12.68;74.02;99117.03;5125889;27;20139;-64
2023/10/27 09:28:15;;;;;;;6.38;3.85;;;;;;;12.67;74.49;99118.13;5120965;28;20043;-66
2023/10/27 09:30:44;;;;;;;7.57;3.50;;;;;;;12.65;74.33;99114.91;5123247;28;20071;-65
2023/10/27 09:33:15;;;;;;;7.55;4.45;;;;;;;12.65;74.17;99110.31;5121466;28;20047;-65
2023/10/27 09:35:44;;;;;;;5.85;3.67;;;;;;;12.64;74.70;99126.75;5121881;28;20116;-63
2023/10/27 09:38:12;;;;;;;7.18;4.85;;;;;;;12.66;74.59;99127.28;5122235;28;20093;-63
2023/10/27 09:40:43;;;;;;;9.35;4.93;;;;;;;12.70;74.84;99112.97;5123557;28;21828;-64
2023/10/27 09:43:17;;;;;;;7.53;4.55;;;;;;;12.82;74.11;99112.63;5122511;27;20109;-65
2023/10/27 09:45:52;;;;;;;6.43;4.05;;;;;;;13.06;73.26;99111.94;5119110;28;20059;-66
2023/10/27 09:48:24;;;;;;;7.35;4.97;;;;;;;13.28;72.99;99121.25;5122675;28;20111;-68
2023/10/27 09:50:58;;;;;;;7.35;4.88;;;;;;;13.47;72.00;99131.38;5122903;28;20048;-65
2023/10/27 09:53:28;;;;;;;8.30;4.55;;;;;;;13.61;71.52;99119.63;4767128;28;10000289;-65
2023/10/27 09:56:01;;;;;;;9.43;4.82;;;;;;;13.61;71.23;99118.81;5120532;28;20548;-66
2023/10/27 09:58:31;;;;;;;6.65;4.65;;;;;;;13.56;71.36;99130.47;5120889;28;20120;-65
2023/10/27 10:01:01;;;;;;;6.88;4.35;;;;;;;13.47;71.92;99128.66;5119710;28;20059;-64
2023/10/27 10:03:29;;;;;;;10.75;3.75;;;;;;;13.40;71.98;99136.28;5119612;28;20055;-68
2023/10/27 10:06:11;;;;;;;6.30;4.45;;;;;;;13.30;72.40;99129.88;5115712;28;20074;-67
2023/10/27 10:08:41;;;;;;;7.55;5.05;;;;;;;13.25;72.66;99143.41;5115487;28;20051;-68
2023/10/27 10:11:15;;;;;;;6.88;4.53;;;;;;;13.17;73.09;99138.59;5118279;28;20059;-68
2023/10/27 10:13:44;;;;;;;7.03;4.57;;;;;;;13.14;72.91;99146.41;5121724;28;20067;-68
2023/10/27 10:16:14;;;;;;;9.73;5.45;;;;;;;13.06;73.67;99139.72;5120571;28;20040;-68
2023/10/27 10:18:52;;;;;;;9.02;5.28;;;;;;;13.06;73.50;99147.00;5125941;27;20040;-67
2023/10/27 10:21:38;;;;;;;6.93;5.10;;;;;;;13.02;73.89;99147.56;5123057;28;20336;-68
2023/10/27 10:24:11;;;;;;;8.23;4.75;;;;;;;12.99;73.91;99148.13;5119571;27;20051;-68
2023/10/27 10:27:10;;;;;;;8.70;4.95;;;;;;;12.98;74.12;99151.09;5121004;28;20071;-66
2023/10/27 10:29:38;;;;;;;5.53;3.95;;;;;;;12.97;73.82;99152.19;5119071;28;20067;-67
2023/10/27 10:32:30;;;;;;;5.97;3.95;;;;;;;12.93;73.74;99146.53;5121442;28;20624;-67
2023/10/27 10:35:21;;;;;;;7.78;4.53;;;;;;;12.92;74.17;99154.91;5112296;28;20051;-66
2023/10/27 10:37:51;;;;;;;7.35;4.32;;;;;;;12.91;74.41;99147.91;5118947;28;20044;-68
2023/10/27 10:40:22;;;;;;;8.48;4.95;;;;;;;12.90;73.95;99146.28;5119003;28;20126;-68
2023/10/27 10:43:27;;;;;;;4.82;3.97;;;;;;;12.88;74.35;99149.28;5117940;28;20052;-66
2023/10/27 10:45:56;;;;;;;6.70;4.60;;;;;;;12.87;74.47;99152.25;5117013;28;20082;-65
2023/10/27 10:48:25;;;;;;;6.97;4.45;;;;;;;12.84;74.56;99145.50;5118007;28;20040;-66
2023/10/27 10:50:55;;;;;;;9.05;4.05;;;;;;;12.86;74.37;99145.25;5118649;28;20082;-65
2023/10/27 10:53:25;;;;;;;6.85;3.85;;;;;;;12.85;74.42;99140.94;5118406;28;20066;-65
2023/10/27 10:55:58;;;;;;;6.75;4.32;;;;;;;12.85;74.26;99140.94;5120212;28;20135;-65
2023/10/27 10:58:28;;;;;;;7.95;4.00;;;;;;;12.83;74.25;99143.91;5121650;28;20047;-66
2023/10/27 11:00:58;;;;;;;5.85;3.53;;;;;;;12.81;74.40;99146.06;5115790;28;20044;-65
2023/10/27 11:03:27;;;;;;;7.38;4.13;;;;;;;12.84;74.53;99147.41;5115356;28;20052;-66
2023/10/27 11:05:59;;;;;;;13.00;4.05;;;;;;;12.83;75.11;99143.91;5123111;28;20142;-66
2023/10/27 11:08:29;;;;;;;7.28;4.15;;;;;;;12.83;74.67;99138.50;5116308;28;20044;-65
2023/10/27 11:11:01;;;;;;;9.68;3.83;;;;;;;12.84;74.70;99145.50;5113143;28;20502;-66
2023/10/27 11:13:33;;;;;;;6.47;3.63;;;;;;;12.84;75.02;99140.13;5115935;28;20061;-66
2023/10/27 11:16:01;;;;;;;8.70;3.95;;;;;;;12.85;75.13;99139.03;5121052;28;20536;-65
2023/10/27 11:18:31;;;;;;;7.93;3.40;;;;;;;12.88;74.63;99143.06;5124258;28;20443;-65
2023/10/27 11:20:59;;;;;;;7.03;3.38;;;;;;;12.85;75.21;99147.13;5114215;28;20494;-66
2023/10/27 11:23:28;;;;;;;5.30;3.65;;;;;;;12.85;74.93;99141.75;5113679;28;20119;-65
2023/10/27 11:26:05;;;;;;;7.00;3.33;;;;;;;12.87;74.79;99138.75;5118179;28;20461;-67
2023/10/27 11:28:38;;;;;;;7.93;3.40;;;;;;;12.87;74.85;99141.47;5117224;27;20040;-66
2023/10/27 11:31:11;;;;;;;6.25;2.63;;;;;;;12.87;74.85;99141.47;5118513;27;20047;-65
2023/10/27 11:34:07;;;;;;;8.93;3.25;;;;;;;12.88;74.96;99149.28;5114680;28;20047;-65
2023/10/27 11:36:36;;;;;;;8.05;4.00;;;;;;;12.87;75.07;99150.34;5053115;28;20545;-65
2023/10/27 11:39:14;;;;;;;10.27;4.00;;;;;;;12.87;75.14;99142.25;5053325;28;20049;-65
2023/10/27 11:41:43;;;;;;;10.07;3.72;;;;;;;12.87;75.31;99141.47;5052405;28;20098;-65